sensor_id;sensor_type;location;lat;lon;timestamp;P1;durP1;ratioP1;P2;durP2;ratioP2
71395;SDS011;59888;55.814;37.132;2023-07-31T00:00:52;5.13;;;3.10;;
71395;SDS011;59888;55.814;37.132;2023-07-31T00:03:19;7.15;;;3.20;;
71395;SDS011;59888;55.814;37.132;2023-07-31T00:05:44;7.35;;;3.05;;
71395;SDS011;59888;55.814;37.132;2023-07-31T00:08:11;7.68;;;3.72;;
71395;SDS011;59888;55.814;37.132;2023-07-31T00:10:37;6.50;;;3.22;;
71395;SDS011;59888;55.814;37.132;2023-07-31T00:13:03;6.95;;;3.20;;
71395;SDS011;59888;55.814;37.132;2023-07-31T00:15:29;6.60;;;3.42;;
71395;SDS011;59888;55.814;37.132;2023-07-31T00:17:55;4.68;;;2.67;;
71395;SDS011;59888;55.814;37.132;2023-07-31T00:20:21;6.55;;;2.92;;
71395;SDS011;59888;55.814;37.132;2023-07-31T00:22:47;6.68;;;3.35;;
71395;SDS011;59888;55.814;37.132;2023-07-31T00:25:13;4.68;;;2.78;;
71395;SDS011;59888;55.814;37.132;2023-07-31T00:27:39;6.72;;;2.67;;
71395;SDS011;59888;55.814;37.132;2023-07-31T00:30:10;6.95;;;3.30;;
71395;SDS011;59888;55.814;37.132;2023-07-31T00:32:37;7.43;;;3.28;;
71395;SDS011;59888;55.814;37.132;2023-07-31T00:35:02;6.45;;;3.03;;
71395;SDS011;59888;55.814;37.132;2023-07-31T00:37:31;5.90;;;3.08;;
71395;SDS011;59888;55.814;37.132;2023-07-31T00:39:57;8.35;;;3.00;;
71395;SDS011;59888;55.814;37.132;2023-07-31T00:42:24;6.35;;;3.20;;
71395;SDS011;59888;55.814;37.132;2023-07-31T00:44:50;10.55;;;3.42;;
71395;SDS011;59888;55.814;37.132;2023-07-31T00:47:16;4.97;;;3.00;;
71395;SDS011;59888;55.814;37.132;2023-07-31T00:49:42;5.63;;;2.97;;
71395;SDS011;59888;55.814;37.132;2023-07-31T00:52:09;6.80;;;3.00;;
71395;SDS011;59888;55.814;37.132;2023-07-31T00:54:36;9.82;;;3.50;;
71395;SDS011;59888;55.814;37.132;2023-07-31T00:57:02;7.35;;;2.83;;
71395;SDS011;59888;55.814;37.132;2023-07-31T00:59:28;5.50;;;2.95;;
71395;SDS011;59888;55.814;37.132;2023-07-31T01:01:55;6.85;;;3.33;;
71395;SDS011;59888;55.814;37.132;2023-07-31T01:04:21;5.95;;;3.20;;
71395;SDS011;59888;55.814;37.132;2023-07-31T01:06:48;5.93;;;2.90;;
71395;SDS011;59888;55.814;37.132;2023-07-31T01:12:28;5.53;;;2.38;;
71395;SDS011;59888;55.814;37.132;2023-07-31T01:15:06;8.35;;;2.50;;
71395;SDS011;59888;55.814;37.132;2023-07-31T01:17:39;10.63;;;3.00;;
71395;SDS011;59888;55.814;37.132;2023-07-31T01:20:28;7.20;;;2.78;;
71395;SDS011;59888;55.814;37.132;2023-07-31T01:25:57;7.75;;;2.67;;
71395;SDS011;59888;55.814;37.132;2023-07-31T01:28:54;5.03;;;2.95;;
71395;SDS011;59888;55.814;37.132;2023-07-31T01:31:23;6.70;;;2.58;;
71395;SDS011;59888;55.814;37.132;2023-07-31T01:33:54;6.63;;;2.75;;
71395;SDS011;59888;55.814;37.132;2023-07-31T01:36:25;6.72;;;2.60;;
71395;SDS011;59888;55.814;37.132;2023-07-31T01:38:51;8.18;;;3.20;;
71395;SDS011;59888;55.814;37.132;2023-07-31T01:41:17;6.68;;;3.10;;
71395;SDS011;59888;55.814;37.132;2023-07-31T01:43:45;6.10;;;2.83;;
71395;SDS011;59888;55.814;37.132;2023-07-31T01:46:12;9.90;;;2.92;;
71395;SDS011;59888;55.814;37.132;2023-07-31T01:48:38;8.25;;;2.95;;
71395;SDS011;59888;55.814;37.132;2023-07-31T01:51:05;7.10;;;3.05;;
71395;SDS011;59888;55.814;37.132;2023-07-31T01:53:31;6.75;;;2.90;;
71395;SDS011;59888;55.814;37.132;2023-07-31T01:55:57;6.93;;;2.92;;
71395;SDS011;59888;55.814;37.132;2023-07-31T01:58:23;9.00;;;2.83;;
71395;SDS011;59888;55.814;37.132;2023-07-31T02:00:49;9.15;;;2.95;;
71395;SDS011;59888;55.814;37.132;2023-07-31T02:03:15;4.22;;;2.60;;
71395;SDS011;59888;55.814;37.132;2023-07-31T02:05:45;8.38;;;2.60;;
71395;SDS011;59888;55.814;37.132;2023-07-31T02:08:12;9.95;;;3.10;;
71395;SDS011;59888;55.814;37.132;2023-07-31T02:10:38;4.78;;;2.50;;
71395;SDS011;59888;55.814;37.132;2023-07-31T02:13:05;6.15;;;2.53;;
71395;SDS011;59888;55.814;37.132;2023-07-31T02:15:32;8.45;;;3.17;;
71395;SDS011;59888;55.814;37.132;2023-07-31T02:17:59;7.40;;;2.83;;
71395;SDS011;59888;55.814;37.132;2023-07-31T02:20:24;5.00;;;2.80;;
71395;SDS011;59888;55.814;37.132;2023-07-31T02:22:51;6.28;;;2.60;;
71395;SDS011;59888;55.814;37.132;2023-07-31T02:25:18;5.43;;;3.10;;
71395;SDS011;59888;55.814;37.132;2023-07-31T02:27:46;6.72;;;2.90;;
71395;SDS011;59888;55.814;37.132;2023-07-31T02:30:14;5.25;;;2.50;;
71395;SDS011;59888;55.814;37.132;2023-07-31T02:32:40;5.40;;;2.72;;
71395;SDS011;59888;55.814;37.132;2023-07-31T02:35:07;6.63;;;2.83;;
71395;SDS011;59888;55.814;37.132;2023-07-31T02:37:33;4.95;;;3.10;;
71395;SDS011;59888;55.814;37.132;2023-07-31T02:39:59;4.88;;;2.55;;
71395;SDS011;59888;55.814;37.132;2023-07-31T02:42:31;5.03;;;2.70;;
71395;SDS011;59888;55.814;37.132;2023-07-31T02:45:00;8.27;;;2.88;;
71395;SDS011;59888;55.814;37.132;2023-07-31T02:47:32;5.80;;;3.03;;
71395;SDS011;59888;55.814;37.132;2023-07-31T02:49:58;8.32;;;3.20;;
71395;SDS011;59888;55.814;37.132;2023-07-31T02:52:25;4.95;;;2.45;;
71395;SDS011;59888;55.814;37.132;2023-07-31T02:54:51;4.82;;;2.53;;
71395;SDS011;59888;55.814;37.132;2023-07-31T02:57:17;4.75;;;2.70;;
71395;SDS011;59888;55.814;37.132;2023-07-31T02:59:43;3.85;;;2.72;;
71395;SDS011;59888;55.814;37.132;2023-07-31T03:02:09;4.35;;;2.40;;
71395;SDS011;59888;55.814;37.132;2023-07-31T03:04:36;6.63;;;2.88;;
71395;SDS011;59888;55.814;37.132;2023-07-31T03:07:02;6.20;;;2.72;;
71395;SDS011;59888;55.814;37.132;2023-07-31T03:09:29;8.77;;;2.60;;
71395;SDS011;59888;55.814;37.132;2023-07-31T03:11:55;5.32;;;2.45;;
71395;SDS011;59888;55.814;37.132;2023-07-31T03:14:21;6.28;;;2.92;;
71395;SDS011;59888;55.814;37.132;2023-07-31T03:16:47;4.30;;;2.50;;
71395;SDS011;59888;55.814;37.132;2023-07-31T03:19:13;5.95;;;2.60;;
71395;SDS011;59888;55.814;37.132;2023-07-31T03:21:40;5.60;;;2.42;;
71395;SDS011;59888;55.814;37.132;2023-07-31T03:24:06;8.00;;;2.70;;
71395;SDS011;59888;55.814;37.132;2023-07-31T03:26:32;5.53;;;2.55;;
71395;SDS011;59888;55.814;37.132;2023-07-31T03:28:58;4.90;;;2.50;;
71395;SDS011;59888;55.814;37.132;2023-07-31T03:31:26;7.40;;;2.60;;
71395;SDS011;59888;55.814;37.132;2023-07-31T03:33:52;6.18;;;2.90;;
71395;SDS011;59888;55.814;37.132;2023-07-31T03:36:17;7.18;;;2.63;;
71395;SDS011;59888;55.814;37.132;2023-07-31T03:38:44;6.80;;;2.80;;
71395;SDS011;59888;55.814;37.132;2023-07-31T03:41:10;6.97;;;3.05;;
71395;SDS011;59888;55.814;37.132;2023-07-31T03:43:36;6.20;;;2.60;;
71395;SDS011;59888;55.814;37.132;2023-07-31T03:46:02;7.38;;;2.70;;
71395;SDS011;59888;55.814;37.132;2023-07-31T03:48:28;5.35;;;2.45;;
71395;SDS011;59888;55.814;37.132;2023-07-31T03:50:57;5.90;;;2.50;;
71395;SDS011;59888;55.814;37.132;2023-07-31T03:53:24;6.70;;;2.40;;
71395;SDS011;59888;55.814;37.132;2023-07-31T03:55:50;8.52;;;2.63;;
71395;SDS011;59888;55.814;37.132;2023-07-31T03:58:16;6.15;;;2.60;;
71395;SDS011;59888;55.814;37.132;2023-07-31T04:00:42;6.90;;;2.30;;
71395;SDS011;59888;55.814;37.132;2023-07-31T04:03:08;6.45;;;2.40;;
71395;SDS011;59888;55.814;37.132;2023-07-31T04:05:37;5.85;;;2.72;;
71395;SDS011;59888;55.814;37.132;2023-07-31T04:08:04;5.88;;;2.60;;
71395;SDS011;59888;55.814;37.132;2023-07-31T04:10:30;7.22;;;2.90;;
71395;SDS011;59888;55.814;37.132;2023-07-31T04:12:58;7.38;;;2.75;;
71395;SDS011;59888;55.814;37.132;2023-07-31T04:15:26;6.22;;;2.65;;
71395;SDS011;59888;55.814;37.132;2023-07-31T04:17:52;8.45;;;3.05;;
71395;SDS011;59888;55.814;37.132;2023-07-31T04:20:18;5.63;;;2.80;;
71395;SDS011;59888;55.814;37.132;2023-07-31T04:22:44;5.88;;;3.05;;
71395;SDS011;59888;55.814;37.132;2023-07-31T04:25:10;5.05;;;2.55;;
71395;SDS011;59888;55.814;37.132;2023-07-31T04:27:35;8.70;;;2.50;;
71395;SDS011;59888;55.814;37.132;2023-07-31T04:30:02;6.53;;;3.22;;
71395;SDS011;59888;55.814;37.132;2023-07-31T04:32:29;8.43;;;2.90;;
71395;SDS011;59888;55.814;37.132;2023-07-31T04:34:55;8.52;;;2.55;;
71395;SDS011;59888;55.814;37.132;2023-07-31T04:37:21;4.13;;;2.40;;
71395;SDS011;59888;55.814;37.132;2023-07-31T04:39:47;5.13;;;2.67;;
71395;SDS011;59888;55.814;37.132;2023-07-31T04:42:13;8.77;;;2.78;;
71395;SDS011;59888;55.814;37.132;2023-07-31T04:44:39;5.22;;;2.50;;
71395;SDS011;59888;55.814;37.132;2023-07-31T04:47:05;7.07;;;2.30;;
71395;SDS011;59888;55.814;37.132;2023-07-31T04:49:32;4.70;;;2.20;;
71395;SDS011;59888;55.814;37.132;2023-07-31T04:51:58;5.07;;;2.20;;
71395;SDS011;59888;55.814;37.132;2023-07-31T04:54:24;6.50;;;2.28;;
71395;SDS011;59888;55.814;37.132;2023-07-31T04:56:50;4.10;;;2.17;;
71395;SDS011;59888;55.814;37.132;2023-07-31T04:59:18;4.97;;;2.25;;
71395;SDS011;59888;55.814;37.132;2023-07-31T05:01:44;7.15;;;2.10;;
71395;SDS011;59888;55.814;37.132;2023-07-31T05:04:13;6.45;;;2.20;;
71395;SDS011;59888;55.814;37.132;2023-07-31T05:06:40;5.20;;;2.25;;
71395;SDS011;59888;55.814;37.132;2023-07-31T05:09:06;5.78;;;2.20;;
71395;SDS011;59888;55.814;37.132;2023-07-31T05:11:35;7.80;;;2.00;;
71395;SDS011;59888;55.814;37.132;2023-07-31T05:14:01;3.83;;;1.63;;
71395;SDS011;59888;55.814;37.132;2023-07-31T05:16:27;3.67;;;1.90;;
71395;SDS011;59888;55.814;37.132;2023-07-31T05:18:53;5.97;;;2.38;;
71395;SDS011;59888;55.814;37.132;2023-07-31T05:21:19;6.88;;;1.65;;
71395;SDS011;59888;55.814;37.132;2023-07-31T05:23:45;5.38;;;1.63;;
71395;SDS011;59888;55.814;37.132;2023-07-31T05:26:11;5.07;;;1.48;;
71395;SDS011;59888;55.814;37.132;2023-07-31T05:28:37;3.55;;;2.03;;
71395;SDS011;59888;55.814;37.132;2023-07-31T05:31:04;5.50;;;1.58;;
71395;SDS011;59888;55.814;37.132;2023-07-31T05:33:30;3.30;;;1.40;;
71395;SDS011;59888;55.814;37.132;2023-07-31T05:35:57;3.47;;;1.38;;
71395;SDS011;59888;55.814;37.132;2023-07-31T05:38:23;3.13;;;1.42;;
71395;SDS011;59888;55.814;37.132;2023-07-31T05:40:49;3.67;;;1.42;;
71395;SDS011;59888;55.814;37.132;2023-07-31T05:43:15;3.20;;;1.50;;
71395;SDS011;59888;55.814;37.132;2023-07-31T05:45:42;2.85;;;1.40;;
71395;SDS011;59888;55.814;37.132;2023-07-31T05:48:09;5.47;;;1.80;;
71395;SDS011;59888;55.814;37.132;2023-07-31T05:50:35;4.35;;;1.48;;
71395;SDS011;59888;55.814;37.132;2023-07-31T05:53:02;5.00;;;1.67;;
71395;SDS011;59888;55.814;37.132;2023-07-31T05:55:28;2.67;;;1.30;;
71395;SDS011;59888;55.814;37.132;2023-07-31T05:57:54;4.00;;;1.55;;
71395;SDS011;59888;55.814;37.132;2023-07-31T06:00:20;2.47;;;1.40;;
71395;SDS011;59888;55.814;37.132;2023-07-31T06:02:47;4.22;;;1.58;;
71395;SDS011;59888;55.814;37.132;2023-07-31T06:05:13;2.53;;;1.65;;
71395;SDS011;59888;55.814;37.132;2023-07-31T06:07:39;3.42;;;1.40;;
71395;SDS011;59888;55.814;37.132;2023-07-31T06:10:06;4.95;;;1.38;;
71395;SDS011;59888;55.814;37.132;2023-07-31T06:12:32;4.00;;;1.40;;
71395;SDS011;59888;55.814;37.132;2023-07-31T06:14:59;3.03;;;1.30;;
71395;SDS011;59888;55.814;37.132;2023-07-31T06:17:25;3.25;;;1.38;;
71395;SDS011;59888;55.814;37.132;2023-07-31T06:19:52;2.85;;;1.17;;
71395;SDS011;59888;55.814;37.132;2023-07-31T06:22:18;2.47;;;1.13;;
71395;SDS011;59888;55.814;37.132;2023-07-31T06:24:44;3.75;;;1.00;;
71395;SDS011;59888;55.814;37.132;2023-07-31T06:27:11;2.88;;;1.00;;
71395;SDS011;59888;55.814;37.132;2023-07-31T06:29:40;4.90;;;1.60;;
71395;SDS011;59888;55.814;37.132;2023-07-31T06:32:06;3.47;;;1.25;;
71395;SDS011;59888;55.814;37.132;2023-07-31T06:34:33;2.97;;;1.40;;
71395;SDS011;59888;55.814;37.132;2023-07-31T06:36:59;5.30;;;1.30;;
71395;SDS011;59888;55.814;37.132;2023-07-31T06:39:25;2.47;;;1.52;;
71395;SDS011;59888;55.814;37.132;2023-07-31T06:41:51;2.60;;;1.25;;
71395;SDS011;59888;55.814;37.132;2023-07-31T06:44:17;3.17;;;1.38;;
71395;SDS011;59888;55.814;37.132;2023-07-31T06:46:43;2.72;;;0.98;;
71395;SDS011;59888;55.814;37.132;2023-07-31T06:49:12;2.15;;;1.10;;
71395;SDS011;59888;55.814;37.132;2023-07-31T06:51:40;2.22;;;1.00;;
71395;SDS011;59888;55.814;37.132;2023-07-31T06:54:08;3.22;;;1.08;;
71395;SDS011;59888;55.814;37.132;2023-07-31T06:56:34;3.08;;;1.35;;
71395;SDS011;59888;55.814;37.132;2023-07-31T06:59:00;2.13;;;1.17;;
71395;SDS011;59888;55.814;37.132;2023-07-31T07:01:26;3.55;;;1.20;;
71395;SDS011;59888;55.814;37.132;2023-07-31T07:03:54;2.40;;;1.27;;
71395;SDS011;59888;55.814;37.132;2023-07-31T07:06:22;3.78;;;1.58;;
71395;SDS011;59888;55.814;37.132;2023-07-31T07:08:48;3.08;;;1.48;;
71395;SDS011;59888;55.814;37.132;2023-07-31T07:11:14;3.15;;;1.20;;
71395;SDS011;59888;55.814;37.132;2023-07-31T07:13:40;1.30;;;0.88;;
71395;SDS011;59888;55.814;37.132;2023-07-31T07:16:06;6.55;;;1.20;;
71395;SDS011;59888;55.814;37.132;2023-07-31T07:18:32;2.25;;;1.20;;
71395;SDS011;59888;55.814;37.132;2023-07-31T07:20:58;3.75;;;1.52;;
71395;SDS011;59888;55.814;37.132;2023-07-31T07:23:27;2.22;;;1.00;;
71395;SDS011;59888;55.814;37.132;2023-07-31T07:25:53;2.60;;;1.20;;
71395;SDS011;59888;55.814;37.132;2023-07-31T07:28:20;6.07;;;1.20;;
71395;SDS011;59888;55.814;37.132;2023-07-31T07:30:53;2.53;;;1.10;;
71395;SDS011;59888;55.814;37.132;2023-07-31T07:33:19;2.63;;;1.20;;
71395;SDS011;59888;55.814;37.132;2023-07-31T07:35:45;2.78;;;1.20;;
71395;SDS011;59888;55.814;37.132;2023-07-31T07:38:13;2.45;;;1.35;;
71395;SDS011;59888;55.814;37.132;2023-07-31T07:40:40;2.05;;;1.20;;
71395;SDS011;59888;55.814;37.132;2023-07-31T07:43:07;2.60;;;1.30;;
71395;SDS011;59888;55.814;37.132;2023-07-31T07:45:33;2.00;;;1.20;;
71395;SDS011;59888;55.814;37.132;2023-07-31T07:48:00;2.75;;;1.38;;
71395;SDS011;59888;55.814;37.132;2023-07-31T07:50:25;1.80;;;1.15;;
71395;SDS011;59888;55.814;37.132;2023-07-31T07:52:52;4.75;;;1.10;;
71395;SDS011;59888;55.814;37.132;2023-07-31T07:55:18;2.75;;;1.17;;
71395;SDS011;59888;55.814;37.132;2023-07-31T07:57:45;2.30;;;1.00;;
71395;SDS011;59888;55.814;37.132;2023-07-31T08:00:12;2.13;;;1.17;;
71395;SDS011;59888;55.814;37.132;2023-07-31T08:02:42;2.30;;;1.10;;
71395;SDS011;59888;55.814;37.132;2023-07-31T08:05:09;4.40;;;1.27;;
71395;SDS011;59888;55.814;37.132;2023-07-31T08:07:35;3.03;;;1.58;;
71395;SDS011;59888;55.814;37.132;2023-07-31T08:10:01;3.38;;;1.30;;
71395;SDS011;59888;55.814;37.132;2023-07-31T08:12:30;2.03;;;1.10;;
71395;SDS011;59888;55.814;37.132;2023-07-31T08:14:57;2.33;;;1.42;;
71395;SDS011;59888;55.814;37.132;2023-07-31T08:17:23;3.90;;;1.23;;
71395;SDS011;59888;55.814;37.132;2023-07-31T08:19:49;1.70;;;1.08;;
71395;SDS011;59888;55.814;37.132;2023-07-31T08:22:16;3.33;;;1.30;;
71395;SDS011;59888;55.814;37.132;2023-07-31T08:24:42;2.67;;;1.30;;
71395;SDS011;59888;55.814;37.132;2023-07-31T08:27:08;2.30;;;1.15;;
71395;SDS011;59888;55.814;37.132;2023-07-31T08:29:34;3.42;;;1.40;;
71395;SDS011;59888;55.814;37.132;2023-07-31T08:32:00;1.92;;;1.10;;
71395;SDS011;59888;55.814;37.132;2023-07-31T08:34:26;1.83;;;1.15;;
71395;SDS011;59888;55.814;37.132;2023-07-31T08:36:52;3.25;;;1.30;;
71395;SDS011;59888;55.814;37.132;2023-07-31T08:39:18;2.45;;;1.33;;
71395;SDS011;59888;55.814;37.132;2023-07-31T08:41:43;3.00;;;1.40;;
71395;SDS011;59888;55.814;37.132;2023-07-31T08:44:10;3.95;;;1.55;;
71395;SDS011;59888;55.814;37.132;2023-07-31T08:46:37;4.10;;;1.38;;
71395;SDS011;59888;55.814;37.132;2023-07-31T08:49:04;2.85;;;1.30;;
71395;SDS011;59888;55.814;37.132;2023-07-31T08:51:34;3.35;;;1.13;;
71395;SDS011;59888;55.814;37.132;2023-07-31T08:54:01;2.35;;;1.13;;
71395;SDS011;59888;55.814;37.132;2023-07-31T08:56:29;2.63;;;1.20;;
71395;SDS011;59888;55.814;37.132;2023-07-31T08:58:58;3.63;;;1.40;;
71395;SDS011;59888;55.814;37.132;2023-07-31T09:01:28;2.22;;;1.40;;
71395;SDS011;59888;55.814;37.132;2023-07-31T09:03:55;3.05;;;1.30;;
71395;SDS011;59888;55.814;37.132;2023-07-31T09:06:23;5.75;;;1.50;;
71395;SDS011;59888;55.814;37.132;2023-07-31T09:08:52;5.85;;;1.40;;
71395;SDS011;59888;55.814;37.132;2023-07-31T09:11:18;2.97;;;1.70;;
71395;SDS011;59888;55.814;37.132;2023-07-31T09:13:44;4.50;;;1.60;;
71395;SDS011;59888;55.814;37.132;2023-07-31T09:16:12;3.55;;;1.45;;
71395;SDS011;59888;55.814;37.132;2023-07-31T09:18:54;4.35;;;1.80;;
71395;SDS011;59888;55.814;37.132;2023-07-31T09:23:49;3.65;;;1.38;;
71395;SDS011;59888;55.814;37.132;2023-07-31T09:28:57;3.08;;;1.65;;
71395;SDS011;59888;55.814;37.132;2023-07-31T09:34:10;8.65;;;1.70;;
71395;SDS011;59888;55.814;37.132;2023-07-31T09:36:43;2.30;;;1.27;;
71395;SDS011;59888;55.814;37.132;2023-07-31T09:39:10;4.75;;;1.48;;
71395;SDS011;59888;55.814;37.132;2023-07-31T09:41:38;2.38;;;1.40;;
71395;SDS011;59888;55.814;37.132;2023-07-31T09:44:05;3.00;;;1.33;;
71395;SDS011;59888;55.814;37.132;2023-07-31T09:46:32;2.45;;;1.30;;
71395;SDS011;59888;55.814;37.132;2023-07-31T09:49:08;4.25;;;1.58;;
71395;SDS011;59888;55.814;37.132;2023-07-31T09:51:36;3.72;;;1.60;;
71395;SDS011;59888;55.814;37.132;2023-07-31T09:54:13;3.50;;;1.45;;
71395;SDS011;59888;55.814;37.132;2023-07-31T09:56:45;2.60;;;1.40;;
71395;SDS011;59888;55.814;37.132;2023-07-31T09:59:13;3.17;;;1.60;;
71395;SDS011;59888;55.814;37.132;2023-07-31T10:01:44;5.20;;;1.48;;
71395;SDS011;59888;55.814;37.132;2023-07-31T10:04:12;3.72;;;1.60;;
71395;SDS011;59888;55.814;37.132;2023-07-31T10:06:39;2.55;;;1.40;;
71395;SDS011;59888;55.814;37.132;2023-07-31T10:09:09;4.70;;;1.30;;
71395;SDS011;59888;55.814;37.132;2023-07-31T10:12:10;5.57;;;1.40;;
71395;SDS011;59888;55.814;37.132;2023-07-31T10:14:35;3.67;;;1.50;;
71395;SDS011;59888;55.814;37.132;2023-07-31T10:17:01;3.45;;;1.55;;
71395;SDS011;59888;55.814;37.132;2023-07-31T10:19:28;5.30;;;1.70;;
71395;SDS011;59888;55.814;37.132;2023-07-31T10:21:56;2.60;;;1.90;;
71395;SDS011;59888;55.814;37.132;2023-07-31T10:24:24;2.90;;;1.73;;
71395;SDS011;59888;55.814;37.132;2023-07-31T10:26:50;2.78;;;1.83;;
71395;SDS011;59888;55.814;37.132;2023-07-31T10:29:19;3.28;;;1.60;;
71395;SDS011;59888;55.814;37.132;2023-07-31T10:31:47;2.38;;;1.55;;
71395;SDS011;59888;55.814;37.132;2023-07-31T10:34:14;3.10;;;1.50;;
71395;SDS011;59888;55.814;37.132;2023-07-31T10:36:41;2.85;;;1.58;;
71395;SDS011;59888;55.814;37.132;2023-07-31T10:39:34;2.53;;;1.50;;
71395;SDS011;59888;55.814;37.132;2023-07-31T10:41:59;3.22;;;1.70;;
71395;SDS011;59888;55.814;37.132;2023-07-31T10:44:25;2.97;;;1.70;;
71395;SDS011;59888;55.814;37.132;2023-07-31T10:46:54;4.25;;;1.70;;
71395;SDS011;59888;55.814;37.132;2023-07-31T10:49:22;4.63;;;1.73;;
71395;SDS011;59888;55.814;37.132;2023-07-31T10:51:48;3.85;;;1.60;;
71395;SDS011;59888;55.814;37.132;2023-07-31T10:54:14;3.28;;;1.65;;
71395;SDS011;59888;55.814;37.132;2023-07-31T10:56:44;2.88;;;1.60;;
71395;SDS011;59888;55.814;37.132;2023-07-31T10:59:12;3.63;;;1.50;;
71395;SDS011;59888;55.814;37.132;2023-07-31T11:01:55;2.78;;;1.60;;
71395;SDS011;59888;55.814;37.132;2023-07-31T11:04:29;2.70;;;1.58;;
71395;SDS011;59888;55.814;37.132;2023-07-31T11:06:57;3.97;;;1.60;;
71395;SDS011;59888;55.814;37.132;2023-07-31T11:09:27;5.43;;;1.95;;
71395;SDS011;59888;55.814;37.132;2023-07-31T11:11:58;2.45;;;1.55;;
71395;SDS011;59888;55.814;37.132;2023-07-31T11:14:25;5.53;;;1.88;;
71395;SDS011;59888;55.814;37.132;2023-07-31T11:16:51;3.03;;;1.80;;
71395;SDS011;59888;55.814;37.132;2023-07-31T11:19:24;4.40;;;2.00;;
71395;SDS011;59888;55.814;37.132;2023-07-31T11:21:51;3.70;;;2.00;;
71395;SDS011;59888;55.814;37.132;2023-07-31T11:24:19;6.72;;;2.33;;
71395;SDS011;59888;55.814;37.132;2023-07-31T11:26:51;7.05;;;2.30;;
71395;SDS011;59888;55.814;37.132;2023-07-31T11:29:20;5.65;;;1.98;;
71395;SDS011;59888;55.814;37.132;2023-07-31T11:31:46;6.15;;;2.00;;
71395;SDS011;59888;55.814;37.132;2023-07-31T11:34:13;6.40;;;2.10;;
71395;SDS011;59888;55.814;37.132;2023-07-31T11:36:39;7.28;;;2.97;;
71395;SDS011;59888;55.814;37.132;2023-07-31T11:39:09;8.00;;;2.10;;
71395;SDS011;59888;55.814;37.132;2023-07-31T11:41:40;6.57;;;2.15;;
71395;SDS011;59888;55.814;37.132;2023-07-31T11:44:09;4.88;;;2.10;;
71395;SDS011;59888;55.814;37.132;2023-07-31T11:46:35;3.13;;;2.00;;
71395;SDS011;59888;55.814;37.132;2023-07-31T11:49:01;3.05;;;2.00;;
71395;SDS011;59888;55.814;37.132;2023-07-31T11:51:27;4.20;;;2.00;;
71395;SDS011;59888;55.814;37.132;2023-07-31T11:53:58;4.75;;;2.10;;
71395;SDS011;59888;55.814;37.132;2023-07-31T11:56:27;5.20;;;2.17;;
71395;SDS011;59888;55.814;37.132;2023-07-31T11:58:55;6.03;;;1.90;;
71395;SDS011;59888;55.814;37.132;2023-07-31T12:01:24;3.10;;;1.80;;
71395;SDS011;59888;55.814;37.132;2023-07-31T12:03:53;3.72;;;1.70;;
71395;SDS011;59888;55.814;37.132;2023-07-31T12:06:20;3.20;;;1.50;;
71395;SDS011;59888;55.814;37.132;2023-07-31T12:08:46;3.83;;;1.70;;
71395;SDS011;59888;55.814;37.132;2023-07-31T12:11:13;4.45;;;2.08;;
71395;SDS011;59888;55.814;37.132;2023-07-31T12:13:40;4.35;;;1.50;;
71395;SDS011;59888;55.814;37.132;2023-07-31T12:16:06;3.50;;;1.63;;
71395;SDS011;59888;55.814;37.132;2023-07-31T12:18:34;3.17;;;1.77;;
71395;SDS011;59888;55.814;37.132;2023-07-31T12:21:05;4.40;;;2.00;;
71395;SDS011;59888;55.814;37.132;2023-07-31T12:23:34;4.25;;;1.65;;
71395;SDS011;59888;55.814;37.132;2023-07-31T12:26:14;3.53;;;1.50;;
71395;SDS011;59888;55.814;37.132;2023-07-31T12:28:45;4.70;;;1.70;;
71395;SDS011;59888;55.814;37.132;2023-07-31T12:33:46;4.13;;;1.65;;
71395;SDS011;59888;55.814;37.132;2023-07-31T12:36:14;2.83;;;1.80;;
71395;SDS011;59888;55.814;37.132;2023-07-31T12:38:42;2.60;;;1.50;;
71395;SDS011;59888;55.814;37.132;2023-07-31T12:41:08;3.65;;;1.90;;
71395;SDS011;59888;55.814;37.132;2023-07-31T12:43:35;3.60;;;1.90;;
71395;SDS011;59888;55.814;37.132;2023-07-31T12:46:06;3.10;;;1.90;;
71395;SDS011;59888;55.814;37.132;2023-07-31T12:48:36;6.38;;;2.33;;
71395;SDS011;59888;55.814;37.132;2023-07-31T12:51:03;5.32;;;1.88;;
71395;SDS011;59888;55.814;37.132;2023-07-31T12:53:29;5.07;;;1.95;;
71395;SDS011;59888;55.814;37.132;2023-07-31T12:55:56;5.68;;;2.05;;
71395;SDS011;59888;55.814;37.132;2023-07-31T12:58:22;3.33;;;1.80;;
71395;SDS011;59888;55.814;37.132;2023-07-31T13:00:48;3.45;;;2.05;;
71395;SDS011;59888;55.814;37.132;2023-07-31T13:03:14;3.33;;;1.83;;
71395;SDS011;59888;55.814;37.132;2023-07-31T13:05:41;3.45;;;2.03;;
71395;SDS011;59888;55.814;37.132;2023-07-31T13:08:07;4.00;;;1.65;;
71395;SDS011;59888;55.814;37.132;2023-07-31T13:10:33;4.95;;;2.15;;
71395;SDS011;59888;55.814;37.132;2023-07-31T13:12:59;7.15;;;1.80;;
71395;SDS011;59888;55.814;37.132;2023-07-31T13:15:25;3.55;;;1.95;;
71395;SDS011;59888;55.814;37.132;2023-07-31T13:17:51;3.22;;;1.85;;
71395;SDS011;59888;55.814;37.132;2023-07-31T13:20:17;7.70;;;2.15;;
71395;SDS011;59888;55.814;37.132;2023-07-31T13:22:43;3.88;;;1.98;;
71395;SDS011;59888;55.814;37.132;2023-07-31T13:25:09;5.30;;;2.10;;
71395;SDS011;59888;55.814;37.132;2023-07-31T13:27:35;2.47;;;1.65;;
71395;SDS011;59888;55.814;37.132;2023-07-31T13:30:02;3.70;;;1.90;;
71395;SDS011;59888;55.814;37.132;2023-07-31T13:32:32;3.28;;;1.90;;
71395;SDS011;59888;55.814;37.132;2023-07-31T13:34:59;3.15;;;2.00;;
71395;SDS011;59888;55.814;37.132;2023-07-31T13:37:26;3.83;;;1.92;;
71395;SDS011;59888;55.814;37.132;2023-07-31T13:39:53;4.45;;;1.95;;
71395;SDS011;59888;55.814;37.132;2023-07-31T13:42:19;3.00;;;1.88;;
71395;SDS011;59888;55.814;37.132;2023-07-31T13:44:45;3.72;;;1.92;;
71395;SDS011;59888;55.814;37.132;2023-07-31T13:47:13;4.60;;;1.90;;
71395;SDS011;59888;55.814;37.132;2023-07-31T13:49:40;2.88;;;1.80;;
71395;SDS011;59888;55.814;37.132;2023-07-31T13:52:10;3.15;;;1.80;;
71395;SDS011;59888;55.814;37.132;2023-07-31T13:54:39;3.92;;;1.80;;
71395;SDS011;59888;55.814;37.132;2023-07-31T13:57:05;3.25;;;1.83;;
71395;SDS011;59888;55.814;37.132;2023-07-31T13:59:31;4.22;;;2.30;;
71395;SDS011;59888;55.814;37.132;2023-07-31T14:01:59;4.93;;;1.70;;
71395;SDS011;59888;55.814;37.132;2023-07-31T14:04:25;3.15;;;1.80;;
71395;SDS011;59888;55.814;37.132;2023-07-31T14:06:51;5.30;;;2.30;;
71395;SDS011;59888;55.814;37.132;2023-07-31T14:09:17;3.33;;;2.08;;
71395;SDS011;59888;55.814;37.132;2023-07-31T14:11:43;5.32;;;1.92;;
71395;SDS011;59888;55.814;37.132;2023-07-31T14:14:09;4.22;;;2.40;;
71395;SDS011;59888;55.814;37.132;2023-07-31T14:16:36;3.13;;;1.90;;
71395;SDS011;59888;55.814;37.132;2023-07-31T14:19:02;4.65;;;2.00;;
71395;SDS011;59888;55.814;37.132;2023-07-31T14:21:29;3.35;;;2.00;;
71395;SDS011;59888;55.814;37.132;2023-07-31T14:23:55;3.63;;;1.80;;
71395;SDS011;59888;55.814;37.132;2023-07-31T14:26:22;5.22;;;1.90;;
71395;SDS011;59888;55.814;37.132;2023-07-31T14:28:48;4.43;;;1.77;;
71395;SDS011;59888;55.814;37.132;2023-07-31T14:31:14;3.75;;;2.30;;
71395;SDS011;59888;55.814;37.132;2023-07-31T14:33:40;5.32;;;2.08;;
71395;SDS011;59888;55.814;37.132;2023-07-31T14:36:06;4.88;;;2.05;;
71395;SDS011;59888;55.814;37.132;2023-07-31T14:38:32;6.38;;;2.00;;
71395;SDS011;59888;55.814;37.132;2023-07-31T14:40:59;6.32;;;2.00;;
71395;SDS011;59888;55.814;37.132;2023-07-31T14:43:25;4.07;;;2.00;;
71395;SDS011;59888;55.814;37.132;2023-07-31T14:45:51;3.85;;;1.90;;
71395;SDS011;59888;55.814;37.132;2023-07-31T14:48:19;4.45;;;2.17;;
71395;SDS011;59888;55.814;37.132;2023-07-31T14:50:45;4.13;;;1.90;;